sensor_id;sensor_type;location;lat;lon;timestamp;temperature;humidity
418;DHT22;49;48.530;9.200;2023-04-25T00:00:16;13.50;43.50
418;DHT22;49;48.530;9.200;2023-04-25T00:02:43;13.60;42.50
418;DHT22;49;48.530;9.200;2023-04-25T00:05:12;13.70;41.70
418;DHT22;49;48.530;9.200;2023-04-25T00:07:40;13.70;41.00
418;DHT22;49;48.530;9.200;2023-04-25T00:10:09;13.90;40.90
418;DHT22;49;48.530;9.200;2023-04-25T00:12:36;13.60;41.10
418;DHT22;49;48.530;9.200;2023-04-25T00:15:05;13.10;44.40
418;DHT22;49;48.530;9.200;2023-04-25T00:17:34;12.90;46.20
418;DHT22;49;48.530;9.200;2023-04-25T00:20:01;13.00;46.50
418;DHT22;49;48.530;9.200;2023-04-25T00:22:32;13.00;47.40
418;DHT22;49;48.530;9.200;2023-04-25T00:24:59;13.10;46.20
418;DHT22;49;48.530;9.200;2023-04-25T00:27:27;13.40;45.30
418;DHT22;49;48.530;9.200;2023-04-25T00:29:53;13.50;44.10
418;DHT22;49;48.530;9.200;2023-04-25T00:32:20;13.60;42.70
418;DHT22;49;48.530;9.200;2023-04-25T00:34:49;13.80;41.30
418;DHT22;49;48.530;9.200;2023-04-25T00:37:15;14.00;40.70
418;DHT22;49;48.530;9.200;2023-04-25T00:39:43;13.90;40.80
418;DHT22;49;48.530;9.200;2023-04-25T00:42:12;13.90;40.90
418;DHT22;49;48.530;9.200;2023-04-25T00:44:39;13.70;41.70
418;DHT22;49;48.530;9.200;2023-04-25T00:47:07;13.70;42.50
418;DHT22;49;48.530;9.200;2023-04-25T00:49:34;13.70;42.60
418;DHT22;49;48.530;9.200;2023-04-25T00:52:03;13.70;42.30
418;DHT22;49;48.530;9.200;2023-04-25T00:54:30;13.70;41.00
418;DHT22;49;48.530;9.200;2023-04-25T00:56:57;13.90;40.00
418;DHT22;49;48.530;9.200;2023-04-25T00:59:25;14.00;39.10
418;DHT22;49;48.530;9.200;2023-04-25T01:01:52;14.10;39.50
418;DHT22;49;48.530;9.200;2023-04-25T01:04:19;14.10;37.90
418;DHT22;49;48.530;9.200;2023-04-25T01:06:47;14.00;38.30
418;DHT22;49;48.530;9.200;2023-04-25T01:09:16;14.00;38.90
418;DHT22;49;48.530;9.200;2023-04-25T01:11:43;14.00;39.10
418;DHT22;49;48.530;9.200;2023-04-25T01:14:09;14.00;39.10
418;DHT22;49;48.530;9.200;2023-04-25T01:16:36;14.10;39.20
418;DHT22;49;48.530;9.200;2023-04-25T01:19:05;14.20;39.30
418;DHT22;49;48.530;9.200;2023-04-25T01:21:36;14.10;39.10
418;DHT22;49;48.530;9.200;2023-04-25T01:24:04;14.10;39.20
418;DHT22;49;48.530;9.200;2023-04-25T01:26:31;14.00;39.10
418;DHT22;49;48.530;9.200;2023-04-25T01:28:59;13.90;39.80
418;DHT22;49;48.530;9.200;2023-04-25T01:31:26;13.90;40.00
418;DHT22;49;48.530;9.200;2023-04-25T01:33:54;13.90;40.50
418;DHT22;49;48.530;9.200;2023-04-25T01:36:21;13.90;41.10
418;DHT22;49;48.530;9.200;2023-04-25T01:38:50;13.90;40.90
418;DHT22;49;48.530;9.200;2023-04-25T01:41:18;13.70;41.80
418;DHT22;49;48.530;9.200;2023-04-25T01:43:45;13.50;43.00
418;DHT22;49;48.530;9.200;2023-04-25T01:46:12;13.50;43.30
418;DHT22;49;48.530;9.200;2023-04-25T01:48:39;13.40;44.00
418;DHT22;49;48.530;9.200;2023-04-25T01:51:06;13.40;44.90
418;DHT22;49;48.530;9.200;2023-04-25T01:53:33;13.20;46.60
418;DHT22;49;48.530;9.200;2023-04-25T01:56:02;13.20;47.00
418;DHT22;49;48.530;9.200;2023-04-25T01:58:29;13.50;51.20
418;DHT22;49;48.530;9.200;2023-04-25T02:00:56;13.50;48.30
418;DHT22;49;48.530;9.200;2023-04-25T02:03:23;13.60;47.80
418;DHT22;49;48.530;9.200;2023-04-25T02:05:49;13.60;47.10
418;DHT22;49;48.530;9.200;2023-04-25T02:08:17;13.70;47.00
418;DHT22;49;48.530;9.200;2023-04-25T02:10:44;13.60;46.10
418;DHT22;49;48.530;9.200;2023-04-25T02:13:12;13.40;46.50
418;DHT22;49;48.530;9.200;2023-04-25T02:15:39;13.50;46.00
418;DHT22;49;48.530;9.200;2023-04-25T02:18:06;13.70;46.80
418;DHT22;49;48.530;9.200;2023-04-25T02:20:36;13.60;48.50
418;DHT22;49;48.530;9.200;2023-04-25T02:23:03;13.70;49.50
418;DHT22;49;48.530;9.200;2023-04-25T02:25:30;13.50;52.00
418;DHT22;49;48.530;9.200;2023-04-25T02:27:57;13.50;52.60
418;DHT22;49;48.530;9.200;2023-04-25T02:30:26;13.50;53.40
418;DHT22;49;48.530;9.200;2023-04-25T02:32:53;13.50;52.80
418;DHT22;49;48.530;9.200;2023-04-25T02:35:20;13.40;53.50
418;DHT22;49;48.530;9.200;2023-04-25T02:37:47;13.30;53.50
418;DHT22;49;48.530;9.200;2023-04-25T02:40:13;13.20;55.60
418;DHT22;49;48.530;9.200;2023-04-25T02:42:40;13.00;58.90
418;DHT22;49;48.530;9.200;2023-04-25T02:45:08;13.00;58.20
418;DHT22;49;48.530;9.200;2023-04-25T02:47:37;12.90;58.40
418;DHT22;49;48.530;9.200;2023-04-25T02:50:04;12.90;57.70
418;DHT22;49;48.530;9.200;2023-04-25T02:52:31;12.80;57.40
418;DHT22;49;48.530;9.200;2023-04-25T02:54:58;12.70;58.80
418;DHT22;49;48.530;9.200;2023-04-25T02:57:25;12.70;59.30
418;DHT22;49;48.530;9.200;2023-04-25T02:59:52;12.90;56.10
418;DHT22;49;48.530;9.200;2023-04-25T03:02:19;13.10;54.30
418;DHT22;49;48.530;9.200;2023-04-25T03:04:48;12.90;54.70
418;DHT22;49;48.530;9.200;2023-04-25T03:07:15;13.00;54.90
418;DHT22;49;48.530;9.200;2023-04-25T03:09:41;12.90;54.70
418;DHT22;49;48.530;9.200;2023-04-25T03:12:09;12.80;55.20
418;DHT22;49;48.530;9.200;2023-04-25T03:14:36;12.60;57.00
418;DHT22;49;48.530;9.200;2023-04-25T03:17:03;12.50;57.40
418;DHT22;49;48.530;9.200;2023-04-25T03:19:29;12.40;57.50
418;DHT22;49;48.530;9.200;2023-04-25T03:21:58;12.50;57.50
418;DHT22;49;48.530;9.200;2023-04-25T03:24:25;12.50;57.40
418;DHT22;49;48.530;9.200;2023-04-25T03:26:52;12.50;57.10
418;DHT22;49;48.530;9.200;2023-04-25T03:29:19;12.50;56.30
418;DHT22;49;48.530;9.200;2023-04-25T03:31:50;12.60;55.80
418;DHT22;49;48.530;9.200;2023-04-25T03:34:16;12.70;55.70
418;DHT22;49;48.530;9.200;2023-04-25T03:36:43;12.60;56.30
418;DHT22;49;48.530;9.200;2023-04-25T03:39:12;12.80;55.90
418;DHT22;49;48.530;9.200;2023-04-25T03:41:39;12.90;56.20
418;DHT22;49;48.530;9.200;2023-04-25T03:44:06;12.90;55.50
418;DHT22;49;48.530;9.200;2023-04-25T03:46:33;12.80;56.80
418;DHT22;49;48.530;9.200;2023-04-25T03:49:00;12.70;57.10
418;DHT22;49;48.530;9.200;2023-04-25T03:51:26;12.70;57.50
418;DHT22;49;48.530;9.200;2023-04-25T03:53:53;12.50;58.60
418;DHT22;49;48.530;9.200;2023-04-25T03:56:22;12.30;63.50
418;DHT22;49;48.530;9.200;2023-04-25T03:58:49;12.50;60.50
418;DHT22;49;48.530;9.200;2023-04-25T04:01:16;12.60;58.70
418;DHT22;49;48.530;9.200;2023-04-25T04:03:43;12.70;58.80
418;DHT22;49;48.530;9.200;2023-04-25T04:06:10;12.80;58.60
418;DHT22;49;48.530;9.200;2023-04-25T04:08:38;12.90;58.20
418;DHT22;49;48.530;9.200;2023-04-25T04:11:05;12.90;56.60
418;DHT22;49;48.530;9.200;2023-04-25T04:13:34;12.70;58.00
418;DHT22;49;48.530;9.200;2023-04-25T04:16:00;12.40;59.50
418;DHT22;49;48.530;9.200;2023-04-25T04:18:29;12.60;58.70
418;DHT22;49;48.530;9.200;2023-04-25T04:20:56;12.60;58.30
418;DHT22;49;48.530;9.200;2023-04-25T04:23:23;12.50;59.70
418;DHT22;49;48.530;9.200;2023-04-25T04:25:52;12.50;58.70
418;DHT22;49;48.530;9.200;2023-04-25T04:28:19;12.40;59.30
418;DHT22;49;48.530;9.200;2023-04-25T04:30:49;12.50;60.90
418;DHT22;49;48.530;9.200;2023-04-25T04:33:16;12.50;58.60
418;DHT22;49;48.530;9.200;2023-04-25T04:35:44;12.40;59.60
418;DHT22;49;48.530;9.200;2023-04-25T04:38:12;12.30;60.30
418;DHT22;49;48.530;9.200;2023-04-25T04:40:40;12.60;57.80
418;DHT22;49;48.530;9.200;2023-04-25T04:43:08;12.70;57.80
418;DHT22;49;48.530;9.200;2023-04-25T04:45:36;12.80;58.00
418;DHT22;49;48.530;9.200;2023-04-25T04:48:05;12.90;57.50
418;DHT22;49;48.530;9.200;2023-04-25T04:50:32;13.00;56.40
418;DHT22;49;48.530;9.200;2023-04-25T04:53:01;13.10;56.30
418;DHT22;49;48.530;9.200;2023-04-25T04:55:28;13.10;54.30
418;DHT22;49;48.530;9.200;2023-04-25T04:57:55;13.10;55.40
418;DHT22;49;48.530;9.200;2023-04-25T05:00:22;13.00;54.00
418;DHT22;49;48.530;9.200;2023-04-25T05:02:49;13.00;54.40
418;DHT22;49;48.530;9.200;2023-04-25T05:05:18;12.90;55.20
418;DHT22;49;48.530;9.200;2023-04-25T05:07:45;12.90;55.40
418;DHT22;49;48.530;9.200;2023-04-25T05:10:12;13.00;54.90
418;DHT22;49;48.530;9.200;2023-04-25T05:12:39;13.00;56.10
418;DHT22;49;48.530;9.200;2023-04-25T05:15:07;13.00;60.20
418;DHT22;49;48.530;9.200;2023-04-25T05:17:34;13.10;53.60
418;DHT22;49;48.530;9.200;2023-04-25T05:20:03;13.20;52.50
418;DHT22;49;48.530;9.200;2023-04-25T05:22:32;13.20;53.20
418;DHT22;49;48.530;9.200;2023-04-25T05:24:59;13.20;55.10
418;DHT22;49;48.530;9.200;2023-04-25T05:27:26;12.90;54.10
418;DHT22;49;48.530;9.200;2023-04-25T05:29:53;12.80;59.20
418;DHT22;49;48.530;9.200;2023-04-25T05:32:20;12.40;60.60
418;DHT22;49;48.530;9.200;2023-04-25T05:34:47;12.50;61.50
418;DHT22;49;48.530;9.200;2023-04-25T05:37:14;12.50;62.60
418;DHT22;49;48.530;9.200;2023-04-25T05:39:43;12.50;62.50
418;DHT22;49;48.530;9.200;2023-04-25T05:42:10;12.70;61.80
418;DHT22;49;48.530;9.200;2023-04-25T05:44:37;13.00;60.90
418;DHT22;49;48.530;9.200;2023-04-25T05:47:04;13.10;59.50
418;DHT22;49;48.530;9.200;2023-04-25T05:49:31;13.10;59.60
418;DHT22;49;48.530;9.200;2023-04-25T05:51:59;13.40;58.50
418;DHT22;49;48.530;9.200;2023-04-25T05:54:26;13.60;56.30
418;DHT22;49;48.530;9.200;2023-04-25T05:56:55;14.00;55.50
418;DHT22;49;48.530;9.200;2023-04-25T05:59:22;14.30;53.50
418;DHT22;49;48.530;9.200;2023-04-25T06:01:49;14.70;51.30
418;DHT22;49;48.530;9.200;2023-04-25T06:04:17;14.60;50.30
418;DHT22;49;48.530;9.200;2023-04-25T06:06:44;14.80;50.40
418;DHT22;49;48.530;9.200;2023-04-25T06:09:11;15.20;51.80
418;DHT22;49;48.530;9.200;2023-04-25T06:11:38;15.60;48.90
418;DHT22;49;48.530;9.200;2023-04-25T06:14:07;15.70;43.10
418;DHT22;49;48.530;9.200;2023-04-25T06:16:34;15.70;40.60
418;DHT22;49;48.530;9.200;2023-04-25T06:19:01;15.80;39.20
418;DHT22;49;48.530;9.200;2023-04-25T06:21:28;16.00;37.10
418;DHT22;49;48.530;9.200;2023-04-25T06:23:57;15.80;38.30
418;DHT22;49;48.530;9.200;2023-04-25T06:26:24;15.80;38.30
418;DHT22;49;48.530;9.200;2023-04-25T06:28:51;15.60;38.90
418;DHT22;49;48.530;9.200;2023-04-25T06:31:19;15.60;38.30
418;DHT22;49;48.530;9.200;2023-04-25T06:33:46;15.40;36.90
418;DHT22;49;48.530;9.200;2023-04-25T06:36:13;15.30;36.70
418;DHT22;49;48.530;9.200;2023-04-25T06:38:40;15.30;37.90
418;DHT22;49;48.530;9.200;2023-04-25T06:41:08;15.30;41.00
418;DHT22;49;48.530;9.200;2023-04-25T06:43:35;15.20;37.30
418;DHT22;49;48.530;9.200;2023-04-25T06:46:02;15.30;40.30
418;DHT22;49;48.530;9.200;2023-04-25T06:48:31;15.30;38.00
418;DHT22;49;48.530;9.200;2023-04-25T06:50:58;15.40;38.00
418;DHT22;49;48.530;9.200;2023-04-25T06:53:26;15.30;38.80
418;DHT22;49;48.530;9.200;2023-04-25T06:55:53;15.30;39.90
418;DHT22;49;48.530;9.200;2023-04-25T06:58:20;15.40;38.50
418;DHT22;49;48.530;9.200;2023-04-25T07:00:47;15.40;37.80
418;DHT22;49;48.530;9.200;2023-04-25T07:03:14;15.50;36.30
418;DHT22;49;48.530;9.200;2023-04-25T07:05:44;15.50;36.10
418;DHT22;49;48.530;9.200;2023-04-25T07:08:11;15.50;36.00
418;DHT22;49;48.530;9.200;2023-04-25T07:10:39;15.40;36.40
418;DHT22;49;48.530;9.200;2023-04-25T07:13:06;15.40;36.10
418;DHT22;49;48.530;9.200;2023-04-25T07:15:33;15.50;38.10
418;DHT22;49;48.530;9.200;2023-04-25T07:18:01;15.50;38.40
418;DHT22;49;48.530;9.200;2023-04-25T07:20:28;15.60;35.40
418;DHT22;49;48.530;9.200;2023-04-25T07:22:58;15.60;34.50
418;DHT22;49;48.530;9.200;2023-04-25T07:25:25;15.70;34.80
418;DHT22;49;48.530;9.200;2023-04-25T07:27:53;15.80;36.60
418;DHT22;49;48.530;9.200;2023-04-25T07:30:20;15.70;35.30
418;DHT22;49;48.530;9.200;2023-04-25T07:32:47;15.70;36.40
418;DHT22;49;48.530;9.200;2023-04-25T07:35:14;15.60;36.80
418;DHT22;49;48.530;9.200;2023-04-25T07:37:41;15.60;37.90
418;DHT22;49;48.530;9.200;2023-04-25T07:40:10;15.70;38.40
418;DHT22;49;48.530;9.200;2023-04-25T07:42:38;15.60;38.00
418;DHT22;49;48.530;9.200;2023-04-25T07:45:06;15.60;37.00
418;DHT22;49;48.530;9.200;2023-04-25T07:47:34;15.60;38.60
418;DHT22;49;48.530;9.200;2023-04-25T07:50:01;15.60;37.30
418;DHT22;49;48.530;9.200;2023-04-25T07:52:28;15.60;36.50
418;DHT22;49;48.530;9.200;2023-04-25T07:54:55;15.30;37.80
418;DHT22;49;48.530;9.200;2023-04-25T07:57:25;15.10;39.40
418;DHT22;49;48.530;9.200;2023-04-25T07:59:52;15.00;41.20
418;DHT22;49;48.530;9.200;2023-04-25T08:02:19;15.10;40.50
418;DHT22;49;48.530;9.200;2023-04-25T08:04:46;15.20;40.10
418;DHT22;49;48.530;9.200;2023-04-25T08:07:15;15.30;39.10
418;DHT22;49;48.530;9.200;2023-04-25T08:09:41;15.30;42.10
418;DHT22;49;48.530;9.200;2023-04-25T08:12:08;15.40;41.60
418;DHT22;49;48.530;9.200;2023-04-25T08:14:37;15.50;41.70
418;DHT22;49;48.530;9.200;2023-04-25T08:17:05;15.30;43.00
418;DHT22;49;48.530;9.200;2023-04-25T08:19:32;15.40;43.10
418;DHT22;49;48.530;9.200;2023-04-25T08:21:59;15.30;43.30
418;DHT22;49;48.530;9.200;2023-04-25T08:24:25;15.40;42.20
418;DHT22;49;48.530;9.200;2023-04-25T08:26:52;15.10;41.50
418;DHT22;49;48.530;9.200;2023-04-25T08:29:19;15.00;43.60
418;DHT22;49;48.530;9.200;2023-04-25T08:31:50;14.80;45.00
418;DHT22;49;48.530;9.200;2023-04-25T08:34:18;14.60;41.00
418;DHT22;49;48.530;9.200;2023-04-25T08:36:45;14.30;42.30
418;DHT22;49;48.530;9.200;2023-04-25T08:39:12;13.60;44.30
418;DHT22;49;48.530;9.200;2023-04-25T08:41:40;13.20;46.30
418;DHT22;49;48.530;9.200;2023-04-25T08:44:10;13.00;44.30
418;DHT22;49;48.530;9.200;2023-04-25T08:46:38;13.00;47.60
418;DHT22;49;48.530;9.200;2023-04-25T08:49:07;13.30;47.40
418;DHT22;49;48.530;9.200;2023-04-25T08:51:40;13.50;47.20
418;DHT22;49;48.530;9.200;2023-04-25T08:54:13;13.70;44.00
418;DHT22;49;48.530;9.200;2023-04-25T08:56:43;13.90;44.30
418;DHT22;49;48.530;9.200;2023-04-25T08:59:11;14.00;44.40
418;DHT22;49;48.530;9.200;2023-04-25T09:01:38;14.10;45.00
418;DHT22;49;48.530;9.200;2023-04-25T09:04:07;14.10;44.20
418;DHT22;49;48.530;9.200;2023-04-25T09:06:34;14.00;46.70
418;DHT22;49;48.530;9.200;2023-04-25T09:09:03;14.00;47.30
418;DHT22;49;48.530;9.200;2023-04-25T09:11:31;14.00;46.50
418;DHT22;49;48.530;9.200;2023-04-25T09:14:11;13.90;45.60
418;DHT22;49;48.530;9.200;2023-04-25T09:16:57;13.90;48.10
418;DHT22;49;48.530;9.200;2023-04-25T09:19:27;14.20;50.40
418;DHT22;49;48.530;9.200;2023-04-25T09:21:54;14.50;48.80
418;DHT22;49;48.530;9.200;2023-04-25T09:24:30;14.50;47.10
418;DHT22;49;48.530;9.200;2023-04-25T09:26:58;14.80;45.70
418;DHT22;49;48.530;9.200;2023-04-25T09:29:31;14.80;44.60
418;DHT22;49;48.530;9.200;2023-04-25T09:32:14;14.80;43.60
418;DHT22;49;48.530;9.200;2023-04-25T09:34:44;14.60;46.00
418;DHT22;49;48.530;9.200;2023-04-25T09:37:17;14.60;46.70
418;DHT22;49;48.530;9.200;2023-04-25T09:39:46;14.80;46.90
418;DHT22;49;48.530;9.200;2023-04-25T09:42:14;14.80;45.80
418;DHT22;49;48.530;9.200;2023-04-25T09:44:43;14.80;46.30
418;DHT22;49;48.530;9.200;2023-04-25T09:47:11;14.90;45.80
418;DHT22;49;48.530;9.200;2023-04-25T09:49:40;14.80;45.50
418;DHT22;49;48.530;9.200;2023-04-25T09:52:13;14.90;47.40
418;DHT22;49;48.530;9.200;2023-04-25T09:54:41;15.10;46.00
418;DHT22;49;48.530;9.200;2023-04-25T09:57:11;15.10;43.10
418;DHT22;49;48.530;9.200;2023-04-25T09:59:41;15.00;40.00
418;DHT22;49;48.530;9.200;2023-04-25T10:02:09;14.70;42.80
418;DHT22;49;48.530;9.200;2023-04-25T10:04:38;14.60;44.50
418;DHT22;49;48.530;9.200;2023-04-25T10:07:06;14.80;44.10
418;DHT22;49;48.530;9.200;2023-04-25T10:09:37;14.80;45.50
418;DHT22;49;48.530;9.200;2023-04-25T10:12:05;14.70;48.00
418;DHT22;49;48.530;9.200;2023-04-25T10:14:32;14.70;43.50
418;DHT22;49;48.530;9.200;2023-04-25T10:17:00;14.50;46.10
418;DHT22;49;48.530;9.200;2023-04-25T10:19:30;14.00;45.20
418;DHT22;49;48.530;9.200;2023-04-25T10:22:03;13.90;53.10
418;DHT22;49;48.530;9.200;2023-04-25T10:24:31;14.30;50.00
418;DHT22;49;48.530;9.200;2023-04-25T10:27:00;14.30;50.30
418;DHT22;49;48.530;9.200;2023-04-25T10:29:30;14.20;47.20
418;DHT22;49;48.530;9.200;2023-04-25T10:31:58;13.90;46.80
418;DHT22;49;48.530;9.200;2023-04-25T10:34:38;13.80;49.30
418;DHT22;49;48.530;9.200;2023-04-25T10:37:09;13.80;50.10
418;DHT22;49;48.530;9.200;2023-04-25T10:39:39;13.80;49.70
418;DHT22;49;48.530;9.200;2023-04-25T10:42:08;13.80;47.50
418;DHT22;49;48.530;9.200;2023-04-25T10:44:37;13.80;47.10
418;DHT22;49;48.530;9.200;2023-04-25T10:47:06;14.00;51.00
418;DHT22;49;48.530;9.200;2023-04-25T10:49:35;14.10;46.10
418;DHT22;49;48.530;9.200;2023-04-25T10:52:27;13.90;46.10
418;DHT22;49;48.530;9.200;2023-04-25T10:54:56;13.70;44.30
418;DHT22;49;48.530;9.200;2023-04-25T10:57:29;13.80;49.20
418;DHT22;49;48.530;9.200;2023-04-25T11:00:01;13.70;47.40
418;DHT22;49;48.530;9.200;2023-04-25T11:02:30;13.90;47.10
418;DHT22;49;48.530;9.200;2023-04-25T11:04:57;14.20;44.90
418;DHT22;49;48.530;9.200;2023-04-25T11:07:32;14.10;49.30
418;DHT22;49;48.530;9.200;2023-04-25T11:10:02;14.20;45.00
418;DHT22;49;48.530;9.200;2023-04-25T11:12:32;14.60;44.60
418;DHT22;49;48.530;9.200;2023-04-25T11:15:00;14.50;43.80
418;DHT22;49;48.530;9.200;2023-04-25T11:17:28;14.40;44.60
418;DHT22;49;48.530;9.200;2023-04-25T11:19:56;14.00;45.70
418;DHT22;49;48.530;9.200;2023-04-25T11:22:24;13.30;46.60
418;DHT22;49;48.530;9.200;2023-04-25T11:24:51;12.90;51.60
418;DHT22;49;48.530;9.200;2023-04-25T11:27:18;13.20;52.50
418;DHT22;49;48.530;9.200;2023-04-25T11:29:48;12.90;51.10
418;DHT22;49;48.530;9.200;2023-04-25T11:32:17;12.70;52.00
418;DHT22;49;48.530;9.200;2023-04-25T11:34:46;12.50;56.30
418;DHT22;49;48.530;9.200;2023-04-25T11:37:14;12.10;63.00
418;DHT22;49;48.530;9.200;2023-04-25T11:39:45;12.30;65.30
418;DHT22;49;48.530;9.200;2023-04-25T11:42:12;12.10;67.30
418;DHT22;49;48.530;9.200;2023-04-25T11:44:40;12.10;65.20
418;DHT22;49;48.530;9.200;2023-04-25T11:47:08;12.00;65.00
418;DHT22;49;48.530;9.200;2023-04-25T11:49:36;12.40;68.20
418;DHT22;49;48.530;9.200;2023-04-25T11:52:03;13.20;63.40
418;DHT22;49;48.530;9.200;2023-04-25T11:54:35;13.90;61.90
418;DHT22;49;48.530;9.200;2023-04-25T11:57:02;13.70;55.20
418;DHT22;49;48.530;9.200;2023-04-25T11:59:29;13.20;58.20
418;DHT22;49;48.530;9.200;2023-04-25T12:01:56;13.10;58.50
418;DHT22;49;48.530;9.200;2023-04-25T12:04:30;12.90;61.10
418;DHT22;49;48.530;9.200;2023-04-25T12:06:58;13.40;62.70
418;DHT22;49;48.530;9.200;2023-04-25T12:09:31;13.20;63.40
418;DHT22;49;48.530;9.200;2023-04-25T12:12:00;13.10;65.40
418;DHT22;49;48.530;9.200;2023-04-25T12:14:29;13.80;62.30
418;DHT22;49;48.530;9.200;2023-04-25T12:16:58;13.70;58.30
418;DHT22;49;48.530;9.200;2023-04-25T12:19:25;13.30;59.20
418;DHT22;49;48.530;9.200;2023-04-25T12:21:54;13.20;62.30
418;DHT22;49;48.530;9.200;2023-04-25T12:24:22;12.90;61.10
418;DHT22;49;48.530;9.200;2023-04-25T12:26:52;13.40;63.60
418;DHT22;49;48.530;9.200;2023-04-25T12:29:21;13.40;56.10
418;DHT22;49;48.530;9.200;2023-04-25T12:31:49;13.30;65.30
418;DHT22;49;48.530;9.200;2023-04-25T12:34:16;14.00;59.40
418;DHT22;49;48.530;9.200;2023-04-25T12:36:43;14.00;53.20
418;DHT22;49;48.530;9.200;2023-04-25T12:39:16;14.00;54.10
418;DHT22;49;48.530;9.200;2023-04-25T12:41:43;13.80;58.30
418;DHT22;49;48.530;9.200;2023-04-25T12:44:11;13.30;56.70
418;DHT22;49;48.530;9.200;2023-04-25T12:46:39;13.70;60.20
418;DHT22;49;48.530;9.200;2023-04-25T12:49:06;14.20;57.70
418;DHT22;49;48.530;9.200;2023-04-25T12:51:34;14.80;53.80
418;DHT22;49;48.530;9.200;2023-04-25T12:54:01;15.10;51.20
418;DHT22;49;48.530;9.200;2023-04-25T12:56:30;15.20;49.30
418;DHT22;49;48.530;9.200;2023-04-25T12:58:57;14.70;50.00
418;DHT22;49;48.530;9.200;2023-04-25T13:01:25;14.50;51.80
418;DHT22;49;48.530;9.200;2023-04-25T13:03:52;14.70;51.20
418;DHT22;49;48.530;9.200;2023-04-25T13:06:20;15.10;51.10
418;DHT22;49;48.530;9.200;2023-04-25T13:08:47;15.30;48.70
418;DHT22;49;48.530;9.200;2023-04-25T13:11:14;15.20;48.40
418;DHT22;49;48.530;9.200;2023-04-25T13:13:43;15.20;49.80
418;DHT22;49;48.530;9.200;2023-04-25T13:16:10;15.10;48.60
418;DHT22;49;48.530;9.200;2023-04-25T13:18:39;14.90;48.60
418;DHT22;49;48.530;9.200;2023-04-25T13:21:06;15.30;51.30
418;DHT22;49;48.530;9.200;2023-04-25T13:23:33;15.40;45.10
418;DHT22;49;48.530;9.200;2023-04-25T13:26:00;15.50;45.00
418;DHT22;49;48.530;9.200;2023-04-25T13:28:28;15.30;43.60
418;DHT22;49;48.530;9.200;2023-04-25T13:30:56;15.30;40.30
418;DHT22;49;48.530;9.200;2023-04-25T13:33:23;15.50;42.20
418;DHT22;49;48.530;9.200;2023-04-25T13:35:51;15.40;43.80
418;DHT22;49;48.530;9.200;2023-04-25T13:38:22;15.70;47.30
418;DHT22;49;48.530;9.200;2023-04-25T13:40:49;15.50;40.50
418;DHT22;49;48.530;9.200;2023-04-25T13:43:18;15.40;43.20
418;DHT22;49;48.530;9.200;2023-04-25T13:45:45;15.80;41.30
418;DHT22;49;48.530;9.200;2023-04-25T13:48:14;16.20;43.20
418;DHT22;49;48.530;9.200;2023-04-25T13:50:40;16.20;42.70
418;DHT22;49;48.530;9.200;2023-04-25T13:53:07;16.40;40.60
418;DHT22;49;48.530;9.200;2023-04-25T13:55:34;16.50;38.00
418;DHT22;49;48.530;9.200;2023-04-25T13:58:02;16.40;41.90
418;DHT22;49;48.530;9.200;2023-04-25T14:00:34;16.30;40.10
418;DHT22;49;48.530;9.200;2023-04-25T14:03:01;16.50;36.80
418;DHT22;49;48.530;9.200;2023-04-25T14:05:34;16.30;33.90
418;DHT22;49;48.530;9.200;2023-04-25T14:08:05;16.30;39.30
418;DHT22;49;48.530;9.200;2023-04-25T14:10:36;16.40;42.10
418;DHT22;49;48.530;9.200;2023-04-25T14:13:06;16.60;38.90
418;DHT22;49;48.530;9.200;2023-04-25T14:15:34;16.80;37.60
418;DHT22;49;48.530;9.200;2023-04-25T14:18:01;16.90;37.60
418;DHT22;49;48.530;9.200;2023-04-25T14:20:28;17.40;37.90
418;DHT22;49;48.530;9.200;2023-04-25T14:22:57;17.40;34.40
418;DHT22;49;48.530;9.200;2023-04-25T14:25:25;17.40;28.80
418;DHT22;49;48.530;9.200;2023-04-25T14:27:52;17.30;29.40
418;DHT22;49;48.530;9.200;2023-04-25T14:30:20;17.30;30.90
418;DHT22;49;48.530;9.200;2023-04-25T14:32:48;17.40;28.10
418;DHT22;49;48.530;9.200;2023-04-25T14:35:15;17.10;29.20
418;DHT22;49;48.530;9.200;2023-04-25T14:37:42;16.70;32.10
418;DHT22;49;48.530;9.200;2023-04-25T14:40:11;16.80;29.70
418;DHT22;49;48.530;9.200;2023-04-25T14:42:40;17.00;29.70
418;DHT22;49;48.530;9.200;2023-04-25T14:45:09;17.20;32.30
418;DHT22;49;48.530;9.200;2023-04-25T14:47:36;17.20;31.80
418;DHT22;49;48.530;9.200;2023-04-25T14:50:03;17.20;32.10
418;DHT22;49;48.530;9.200;2023-04-25T14:52:31;17.30;31.30
418;DHT22;49;48.530;9.200;2023-04-25T14:54:58;17.60;31.70
418;DHT22;49;48.530;9.200;2023-04-25T14:57:27;17.10;31.60
418;DHT22;49;48.530;9.200;2023-04-25T14:59:54;17.40;30.80
418;DHT22;49;48.530;9.200;2023-04-25T15:02:20;17.20;31.60
418;DHT22;49;48.530;9.200;2023-04-25T15:04:47;16.90;32.00
418;DHT22;49;48.530;9.200;2023-04-25T15:07:14;16.80;31.50
418;DHT22;49;48.530;9.200;2023-04-25T15:09:41;16.70;30.10
418;DHT22;49;48.530;9.200;2023-04-25T15:12:09;16.90;31.60
418;DHT22;49;48.530;9.200;2023-04-25T15:14:37;16.10;29.80
418;DHT22;49;48.530;9.200;2023-04-25T15:17:04;16.30;33.90
418;DHT22;49;48.530;9.200;2023-04-25T15:19:31;16.40;32.80
418;DHT22;49;48.530;9.200;2023-04-25T15:21:58;16.50;31.30
418;DHT22;49;48.530;9.200;2023-04-25T15:24:26;16.60;30.10
418;DHT22;49;48.530;9.200;2023-04-25T15:26:53;16.80;29.70
418;DHT22;49;48.530;9.200;2023-04-25T15:29:20;17.20;32.30
418;DHT22;49;48.530;9.200;2023-04-25T15:31:49;17.20;29.00
418;DHT22;49;48.530;9.200;2023-04-25T15:34:16;17.10;29.40
418;DHT22;49;48.530;9.200;2023-04-25T15:36:43;16.80;28.10
418;DHT22;49;48.530;9.200;2023-04-25T15:39:10;16.60;29.70
418;DHT22;49;48.530;9.200;2023-04-25T15:41:37;16.70;28.40
418;DHT22;49;48.530;9.200;2023-04-25T15:44:04;16.90;30.30
418;DHT22;49;48.530;9.200;2023-04-25T15:46:32;17.20;28.00
418;DHT22;49;48.530;9.200;2023-04-25T15:49:00;17.10;28.90
418;DHT22;49;48.530;9.200;2023-04-25T15:51:27;16.50;29.10
418;DHT22;49;48.530;9.200;2023-04-25T15:53:54;16.60;29.90
418;DHT22;49;48.530;9.200;2023-04-25T15:56:21;16.80;27.90
418;DHT22;49;48.530;9.200;2023-04-25T15:58:49;16.90;28.30
418;DHT22;49;48.530;9.200;2023-04-25T16:01:16;16.60;29.00
418;DHT22;49;48.530;9.200;2023-04-25T16:03:43;16.80;28.70
418;DHT22;49;48.530;9.200;2023-04-25T16:06:11;16.30;30.50
418;DHT22;49;48.530;9.200;2023-04-25T16:08:38;16.00;31.20
418;DHT22;49;48.530;9.200;2023-04-25T16:11:05;15.80;33.00
418;DHT22;49;48.530;9.200;2023-04-25T16:13:32;15.60;33.00
418;DHT22;49;48.530;9.200;2023-04-25T16:16:00;15.40;32.90
418;DHT22;49;48.530;9.200;2023-04-25T16:18:27;15.40;35.60
418;DHT22;49;48.530;9.200;2023-04-25T16:20:54;15.70;32.00
418;DHT22;49;48.530;9.200;2023-04-25T16:23:22;15.70;31.70
418;DHT22;49;48.530;9.200;2023-04-25T16:25:50;15.90;35.70
418;DHT22;49;48.530;9.200;2023-04-25T16:28:19;15.80;31.40
418;DHT22;49;48.530;9.200;2023-04-25T16:30:46;15.70;32.30
418;DHT22;49;48.530;9.200;2023-04-25T16:33:13;16.00;31.90
418;DHT22;49;48.530;9.200;2023-04-25T16:35:40;16.20;31.10
418;DHT22;49;48.530;9.200;2023-04-25T16:38:07;16.40;31.70
418;DHT22;49;48.530;9.200;2023-04-25T16:40:35;16.40;31.50
418;DHT22;49;48.530;9.200;2023-04-25T16:43:02;16.60;34.10
418;DHT22;49;48.530;9.200;2023-04-25T16:45:29;16.70;29.70
418;DHT22;49;48.530;9.200;2023-04-25T16:47:56;16.60;31.80
418;DHT22;49;48.530;9.200;2023-04-25T16:50:23;16.40;32.70
418;DHT22;49;48.530;9.200;2023-04-25T16:52:49;16.40;34.10
418;DHT22;49;48.530;9.200;2023-04-25T16:55:17;16.10;34.80